Time;durP1;ratioP1;P1;durP2;ratioP2;P2;SDS_P1;SDS_P2;PMS_P1;PMS_P2;Temp;Humidity;BMP_temperature;BMP_pressure;BME280_temperature;BME280_humidity;BME280_pressure;Samples;Min_cycle;Max_cycle;Signal;HPM_P1;HPM_P2
2022/01/31 00:02:05;;;;;;;0.10;0.10;;;3.50;99.90;;;;;;5062598;28;20213;-79
2022/01/31 00:04:31;;;;;;;6.50;0.90;;;3.40;99.90;;;;;;5061136;28;20238;-79
2022/01/31 00:06:57;;;;;;;0.70;0.47;;;3.40;99.90;;;;;;5060844;28;20181;-79
2022/01/31 00:09:24;;;;;;;0.10;0.10;;;3.30;99.90;;;;;;5060246;28;20867;-78
2022/01/31 00:11:57;;;;;;;0.40;0.40;;;3.30;99.90;;;;;;5062298;28;20218;-78
2022/01/31 00:14:37;;;;;;;0.20;0.20;;;3.30;99.90;;;;;;5063237;28;20179;-79
2022/01/31 00:17:03;;;;;;;0.40;0.33;;;3.40;99.90;;;;;;5063857;28;20175;-79
2022/01/31 00:19:29;;;;;;;0.63;0.63;;;3.30;99.90;;;;;;5063924;28;20192;-78
2022/01/31 00:21:55;;;;;;;0.13;0.13;;;3.30;99.90;;;;;;5067214;28;20211;-80
2022/01/31 00:24:21;;;;;;;4.07;1.03;;;3.30;99.90;;;;;;5061450;28;20790;-79
2022/01/31 00:26:46;;;;;;;6.47;0.60;;;3.30;99.90;;;;;;5063865;28;20189;-79
2022/01/31 00:29:12;;;;;;;0.53;0.53;;;3.30;99.90;;;;;;5064874;28;20191;-78
2022/01/31 00:31:38;;;;;;;0.50;0.50;;;3.30;99.90;;;;;;5065388;28;20207;-80
2022/01/31 00:34:03;;;;;;;0.60;0.57;;;3.30;99.90;;;;;;5065127;28;20183;-78
2022/01/31 00:36:29;;;;;;;2.57;1.03;;;3.40;99.90;;;;;;5066153;28;20301;-79
2022/01/31 00:38:54;;;;;;;0.10;0.10;;;3.30;99.90;;;;;;5066340;28;20188;-78
2022/01/31 00:41:20;;;;;;;0.10;0.10;;;3.30;99.90;;;;;;5064427;28;20794;-78
2022/01/31 00:43:56;;;;;;;0.20;0.20;;;3.30;99.90;;;;;;5064981;28;20189;-79
2022/01/31 00:46:27;;;;;;;0.10;0.10;;;3.30;99.90;;;;;;5064562;28;20172;-78
2022/01/31 00:48:53;;;;;;;0.10;0.10;;;3.40;99.90;;;;;;5064093;28;20664;-79
2022/01/31 00:51:19;;;;;;;0.10;0.10;;;3.40;99.90;;;;;;5064168;28;20230;-78
2022/01/31 00:53:44;;;;;;;0.20;0.20;;;3.40;99.90;;;;;;5064336;28;20268;-79
2022/01/31 00:56:10;;;;;;;0.27;0.20;;;3.40;99.90;;;;;;5064557;28;20179;-78
2022/01/31 00:58:35;;;;;;;0.10;0.10;;;3.30;99.90;;;;;;5063208;28;20810;-79
2022/01/31 01:01:01;;;;;;;0.43;0.43;;;3.40;99.90;;;;;;5065169;28;20566;-79
2022/01/31 01:03:27;;;;;;;0.30;0.30;;;3.50;99.90;;;;;;5065296;28;20191;-79
2022/01/31 01:05:53;;;;;;;0.57;0.57;;;3.50;99.90;;;;;;5062170;28;20188;-79
2022/01/31 01:08:19;;;;;;;0.30;0.30;;;3.50;99.90;;;;;;5062830;28;20634;-79
2022/01/31 01:10:45;;;;;;;0.23;0.23;;;3.50;99.90;;;;;;5066062;28;20715;-79
2022/01/31 01:13:11;;;;;;;0.50;0.50;;;3.50;99.90;;;;;;5065495;28;20292;-79
2022/01/31 01:15:37;;;;;;;0.17;0.17;;;3.50;99.90;;;;;;5064711;28;20818;-79
2022/01/31 01:18:02;;;;;;;0.30;0.30;;;3.50;99.90;;;;;;5061772;28;20252;-79
2022/01/31 01:20:28;;;;;;;0.30;0.30;;;3.50;99.90;;;;;;5063693;28;20223;-79
2022/01/31 01:22:54;;;;;;;0.60;0.60;;;3.60;99.90;;;;;;5064400;28;20189;-79
2022/01/31 01:25:19;;;;;;;1.97;1.53;;;3.60;99.90;;;;;;5061326;28;20242;-79
2022/01/31 01:27:51;;;;;;;2.23;0.67;;;3.70;99.90;;;;;;5064246;28;20188;-79
2022/01/31 01:30:16;;;;;;;0.20;0.20;;;3.70;99.90;;;;;;5062702;28;20385;-79
2022/01/31 01:35:33;;;;;;;0.63;0.30;;;3.70;99.90;;;;;;5063062;28;20181;-79
2022/01/31 01:38:05;;;;;;;0.20;0.20;;;3.80;99.90;;;;;;5062324;28;20176;-79
2022/01/31 01:40:32;;;;;;;0.40;0.40;;;3.70;99.90;;;;;;5063804;28;20740;-79
2022/01/31 01:42:58;;;;;;;0.17;0.13;;;3.60;99.90;;;;;;5063131;28;20191;-79
2022/01/31 01:45:25;;;;;;;0.10;0.10;;;3.70;99.90;;;;;;5063629;28;20622;-80
2022/01/31 01:47:50;;;;;;;0.30;0.30;;;3.70;99.90;;;;;;5064469;28;20210;-79
2022/01/31 01:50:16;;;;;;;8.40;0.40;;;3.70;99.90;;;;;;5062719;28;20659;-79
2022/01/31 01:52:42;;;;;;;0.40;0.40;;;3.80;99.90;;;;;;5064709;28;20204;-79
2022/01/31 01:55:08;;;;;;;0.20;0.20;;;3.70;99.90;;;;;;5062280;28;20188;-79
2022/01/31 01:57:34;;;;;;;0.10;0.10;;;3.50;99.90;;;;;;5062573;28;20192;-79
2022/01/31 01:59:59;;;;;;;0.10;0.10;;;3.60;99.90;;;;;;5062928;28;20228;-79
2022/01/31 02:02:25;;;;;;;0.07;0.07;;;3.70;99.90;;;;;;5065650;28;20183;-79
2022/01/31 02:04:51;;;;;;;0.37;0.37;;;3.70;99.90;;;;;;5065075;28;20565;-79
2022/01/31 02:07:17;;;;;;;0.10;0.03;;;3.70;99.90;;;;;;5064157;28;20204;-80
2022/01/31 02:09:45;;;;;;;0.40;0.40;;;3.70;99.90;;;;;;5063814;28;20175;-79
2022/01/31 02:12:11;;;;;;;0.20;0.20;;;3.30;99.90;;;;;;5059745;28;20208;-79
2022/01/31 02:14:38;;;;;;;1.10;1.00;;;3.10;99.90;;;;;;5060852;28;20182;-79
2022/01/31 02:17:04;;;;;;;3.00;0.30;;;3.10;99.90;;;;;;5053681;28;20212;-80
2022/01/31 02:19:29;;;;;;;0.20;0.20;;;3.00;99.90;;;;;;5062926;28;20945;-79
2022/01/31 02:21:55;;;;;;;0.10;0.10;;;2.90;99.90;;;;;;5059601;28;20206;-79
2022/01/31 02:24:21;;;;;;;0.40;0.40;;;3.00;99.90;;;;;;5064826;28;20180;-80
2022/01/31 02:26:48;;;;;;;1.80;0.20;;;3.20;99.90;;;;;;5063504;28;20198;-80
2022/01/31 02:29:14;;;;;;;0.30;0.30;;;3.00;99.90;;;;;;5065411;28;20173;-80
2022/01/31 02:31:44;;;;;;;0.13;0.13;;;3.00;99.90;;;;;;5061639;28;20260;-79
2022/01/31 02:34:10;;;;;;;1.67;0.53;;;3.00;99.90;;;;;;5050694;28;20241;-80
2022/01/31 02:36:37;;;;;;;0.10;0.10;;;3.10;99.90;;;;;;5055961;28;20223;-79
2022/01/31 02:39:04;;;;;;;0.00;0.00;;;3.30;99.90;;;;;;5065134;28;20627;-79
2022/01/31 02:41:30;;;;;;;0.20;0.20;;;3.20;99.90;;;;;;5061402;28;20324;-79
2022/01/31 02:43:56;;;;;;;0.30;0.30;;;3.20;99.90;;;;;;5062541;28;20274;-80
2022/01/31 02:46:25;;;;;;;0.20;0.20;;;3.00;99.90;;;;;;5062806;28;20976;-79
2022/01/31 02:48:52;;;;;;;0.10;0.10;;;2.90;99.90;;;;;;5062270;28;20254;-79
2022/01/31 02:51:22;;;;;;;0.10;0.10;;;3.00;99.90;;;;;;5062710;28;20248;-79
2022/01/31 02:53:48;;;;;;;0.27;0.27;;;3.20;99.90;;;;;;5068673;28;20195;-79
2022/01/31 02:56:13;;;;;;;0.20;0.20;;;3.40;99.90;;;;;;5062630;28;20199;-79
2022/01/31 02:58:39;;;;;;;0.50;0.50;;;3.50;99.90;;;;;;5058889;28;20908;-79
2022/01/31 03:01:05;;;;;;;0.30;0.20;;;3.70;99.90;;;;;;5059310;28;20199;-80
2022/01/31 03:03:31;;;;;;;1.60;0.20;;;3.70;99.90;;;;;;5057945;28;20567;-79
2022/01/31 03:05:56;;;;;;;0.50;0.50;;;3.80;99.90;;;;;;5055511;28;20190;-81
2022/01/31 03:08:24;;;;;;;1.67;1.60;;;3.90;99.90;;;;;;5055690;28;21601;-79
2022/01/31 03:10:49;;;;;;;0.07;0.07;;;3.70;99.90;;;;;;5058254;28;20677;-79
2022/01/31 03:13:15;;;;;;;0.50;0.50;;;3.90;99.90;;;;;;5056454;28;20203;-80
2022/01/31 03:15:41;;;;;;;0.23;0.23;;;4.00;99.90;;;;;;5059070;28;20184;-80
2022/01/31 03:18:07;;;;;;;0.10;0.10;;;4.00;99.90;;;;;;5059281;28;20179;-80
2022/01/31 03:20:32;;;;;;;0.33;0.10;;;4.10;99.90;;;;;;5059843;28;20207;-79
2022/01/31 03:22:59;;;;;;;0.10;0.10;;;4.20;99.90;;;;;;5054193;28;20674;-79
2022/01/31 03:25:25;;;;;;;0.30;0.30;;;4.10;99.90;;;;;;5054991;28;20199;-79
2022/01/31 03:27:50;;;;;;;0.10;0.10;;;4.20;99.90;;;;;;5055993;28;20192;-80
2022/01/31 03:30:23;;;;;;;0.30;0.30;;;4.20;99.90;;;;;;5054087;28;20192;-79
2022/01/31 03:32:49;;;;;;;1.70;0.50;;;4.20;99.90;;;;;;5058577;28;20213;-80
2022/01/31 03:35:15;;;;;;;0.60;0.33;;;4.30;99.90;;;;;;5058127;28;20215;-80
2022/01/31 03:37:41;;;;;;;0.10;0.10;;;4.30;99.90;;;;;;5059367;28;20181;-79
2022/01/31 03:40:09;;;;;;;0.27;0.27;;;4.30;99.90;;;;;;5057596;28;20188;-80
2022/01/31 03:42:36;;;;;;;0.10;0.10;;;4.30;99.90;;;;;;5060646;28;20192;-80
2022/01/31 03:45:03;;;;;;;0.53;0.53;;;4.30;99.90;;;;;;5061009;28;20181;-80
2022/01/31 03:47:29;;;;;;;0.20;0.20;;;4.40;99.90;;;;;;5059238;28;20650;-79
2022/01/31 03:49:54;;;;;;;0.20;0.20;;;4.40;99.90;;;;;;5063091;28;20230;-79
2022/01/31 03:52:20;;;;;;;0.10;0.10;;;4.40;99.90;;;;;;5058228;28;20644;-79
2022/01/31 03:54:46;;;;;;;0.10;0.10;;;4.40;99.90;;;;;;5063715;28;20177;-79
2022/01/31 03:57:12;;;;;;;0.30;0.30;;;4.40;99.90;;;;;;5059812;28;20287;-79
2022/01/31 03:59:38;;;;;;;1.27;0.60;;;4.50;99.90;;;;;;5060019;28;20289;-80
2022/01/31 04:02:06;;;;;;;5.40;0.20;;;4.40;99.90;;;;;;5061469;28;20246;-79
2022/01/31 04:04:31;;;;;;;0.10;0.10;;;4.40;99.90;;;;;;5062334;28;20199;-79
2022/01/31 04:06:57;;;;;;;3.77;0.93;;;4.30;99.90;;;;;;5063194;28;20490;-79
2022/01/31 04:09:23;;;;;;;4.60;0.20;;;4.30;99.90;;;;;;5062788;28;20188;-80
2022/01/31 04:11:48;;;;;;;0.67;0.20;;;4.30;99.90;;;;;;5062254;28;20213;-79
2022/01/31 04:14:14;;;;;;;0.40;0.40;;;4.30;99.90;;;;;;5063741;28;21109;-80
2022/01/31 04:16:39;;;;;;;0.70;0.70;;;4.40;99.90;;;;;;5060627;28;20181;-80
2022/01/31 04:19:05;;;;;;;1.80;0.37;;;4.40;99.90;;;;;;5061253;28;20218;-80
2022/01/31 04:21:31;;;;;;;0.43;0.40;;;4.40;99.90;;;;;;5062745;28;20675;-79
2022/01/31 04:23:58;;;;;;;0.63;0.40;;;4.40;99.90;;;;;;5062762;28;20194;-80
2022/01/31 04:26:31;;;;;;;3.50;0.50;;;4.40;99.90;;;;;;5063210;28;20184;-80
2022/01/31 04:29:04;;;;;;;0.67;0.60;;;4.40;99.90;;;;;;5063089;28;20552;-79
2022/01/31 04:31:39;;;;;;;0.20;0.20;;;4.50;99.90;;;;;;5057142;28;20208;-79
2022/01/31 04:34:05;;;;;;;0.50;0.40;;;4.40;99.90;;;;;;5057905;28;20697;-79
2022/01/31 04:36:30;;;;;;;0.23;0.23;;;4.40;99.90;;;;;;5058732;28;20182;-79
2022/01/31 04:38:56;;;;;;;0.17;0.17;;;4.40;99.90;;;;;;5062195;28;20190;-79
2022/01/31 04:41:22;;;;;;;0.10;0.10;;;4.40;99.90;;;;;;5058910;28;20197;-79
2022/01/31 04:43:49;;;;;;;0.20;0.20;;;4.40;99.90;;;;;;5058052;28;20199;-79
2022/01/31 04:46:15;;;;;;;0.50;0.40;;;4.40;99.90;;;;;;5060622;28;20193;-79
2022/01/31 04:48:43;;;;;;;0.13;0.13;;;4.50;99.90;;;;;;5060381;28;20189;-79
2022/01/31 04:51:09;;;;;;;0.20;0.20;;;4.40;99.90;;;;;;5060253;28;20236;-79
2022/01/31 04:53:36;;;;;;;0.53;0.40;;;4.40;99.90;;;;;;5064454;28;20229;-80
2022/01/31 04:56:02;;;;;;;1.70;1.60;;;4.30;99.90;;;;;;5060589;28;20256;-79
2022/01/31 04:58:29;;;;;;;0.27;0.20;;;4.30;99.90;;;;;;5061828;28;20220;-79
2022/01/31 05:00:55;;;;;;;0.20;0.20;;;4.20;99.90;;;;;;5060094;28;20258;-80
2022/01/31 05:03:20;;;;;;;0.73;0.50;;;4.10;99.90;;;;;;5062658;28;20189;-78
2022/01/31 05:05:47;;;;;;;5.93;0.30;;;4.10;99.90;;;;;;5079724;28;20197;-78
2022/01/31 05:08:13;;;;;;;0.00;0.00;;;4.10;99.90;;;;;;5081790;28;20188;-79
2022/01/31 05:10:45;;;;;;;0.10;0.10;;;4.00;99.90;;;;;;5078134;28;20216;-78
2022/01/31 05:13:12;;;;;;;1.60;0.30;;;4.00;99.90;;;;;;5071717;28;20220;-79
2022/01/31 05:15:38;;;;;;;0.57;0.57;;;4.00;99.90;;;;;;5059646;28;20185;-79
2022/01/31 05:18:03;;;;;;;0.30;0.30;;;4.00;99.90;;;;;;5058980;28;20181;-79
2022/01/31 05:20:29;;;;;;;0.17;0.17;;;3.90;99.90;;;;;;5058238;28;20291;-78
2022/01/31 05:22:54;;;;;;;4.90;0.40;;;3.80;99.90;;;;;;5059240;28;20196;-80
2022/01/31 05:25:20;;;;;;;2.53;0.93;;;3.80;99.90;;;;;;5058534;28;20603;-79
2022/01/31 05:27:46;;;;;;;0.40;0.27;;;3.80;99.90;;;;;;5058048;28;20947;-79
2022/01/31 05:30:11;;;;;;;0.13;0.13;;;3.80;99.90;;;;;;5057516;28;20191;-79
2022/01/31 05:32:37;;;;;;;0.00;0.00;;;3.90;99.90;;;;;;5059605;28;20712;-79
2022/01/31 05:35:04;;;;;;;0.47;0.47;;;3.80;99.90;;;;;;5063197;28;20259;-79
2022/01/31 05:37:31;;;;;;;0.23;0.23;;;3.90;99.90;;;;;;5060380;28;20211;-79
2022/01/31 05:39:56;;;;;;;0.20;0.20;;;3.90;99.90;;;;;;5061880;28;20272;-79
2022/01/31 05:42:22;;;;;;;1.23;0.60;;;4.00;99.90;;;;;;5057487;28;20209;-80
2022/01/31 05:44:47;;;;;;;0.10;0.10;;;4.00;99.90;;;;;;5062046;28;20195;-79
2022/01/31 05:47:14;;;;;;;0.10;0.10;;;4.00;99.90;;;;;;5059105;28;20778;-79
2022/01/31 05:49:40;;;;;;;0.50;0.40;;;4.00;99.90;;;;;;5060857;28;20270;-79
2022/01/31 05:52:07;;;;;;;0.27;0.27;;;4.00;99.90;;;;;;5058651;28;20302;-79
2022/01/31 05:54:35;;;;;;;2.00;1.13;;;3.90;99.90;;;;;;5064698;28;20194;-78
2022/01/31 05:57:02;;;;;;;0.33;0.33;;;3.90;99.90;;;;;;5060443;28;20251;-79
2022/01/31 05:59:28;;;;;;;0.40;0.40;;;4.00;99.90;;;;;;5060873;28;20210;-81
2022/01/31 06:01:54;;;;;;;0.10;0.10;;;3.90;99.90;;;;;;5058232;28;20213;-79
2022/01/31 06:04:20;;;;;;;0.47;0.37;;;3.90;99.90;;;;;;5063611;28;20187;-79
2022/01/31 06:06:45;;;;;;;0.30;0.30;;;3.90;99.90;;;;;;5059758;28;20184;-79
2022/01/31 06:09:11;;;;;;;0.20;0.20;;;3.90;99.90;;;;;;5061627;28;20175;-79
2022/01/31 06:11:37;;;;;;;0.20;0.20;;;3.90;99.90;;;;;;5059993;28;20245;-79
2022/01/31 06:14:07;;;;;;;0.83;0.70;;;4.00;99.90;;;;;;5059862;28;20308;-79
2022/01/31 06:16:32;;;;;;;1.00;0.97;;;4.00;99.90;;;;;;5062425;28;20185;-79
2022/01/31 06:18:58;;;;;;;6.70;0.53;;;4.00;99.90;;;;;;5058994;28;20197;-79
2022/01/31 06:21:24;;;;;;;0.30;0.30;;;4.00;99.90;;;;;;5058373;28;20736;-80
2022/01/31 06:23:49;;;;;;;0.10;0.10;;;4.00;99.90;;;;;;5070840;28;20594;-79
2022/01/31 06:26:15;;;;;;;0.10;0.10;;;4.00;99.90;;;;;;5060347;28;20293;-79
2022/01/31 06:28:41;;;;;;;0.10;0.10;;;4.00;99.90;;;;;;5061094;28;20185;-79
2022/01/31 06:31:06;;;;;;;0.77;0.37;;;4.00;99.90;;;;;;5061585;28;20217;-79
2022/01/31 06:33:32;;;;;;;2.30;0.30;;;4.00;99.90;;;;;;5060231;28;20288;-79
2022/01/31 06:35:59;;;;;;;0.20;0.20;;;4.10;99.90;;;;;;5056788;28;20195;-79
2022/01/31 06:38:26;;;;;;;0.30;0.30;;;4.10;99.90;;;;;;5059195;28;20183;-79
2022/01/31 06:40:52;;;;;;;0.20;0.20;;;4.10;99.90;;;;;;5057646;28;20208;-79
2022/01/31 06:43:17;;;;;;;0.10;0.10;;;4.10;99.90;;;;;;5061790;28;20266;-79
2022/01/31 06:45:43;;;;;;;0.10;0.10;;;4.10;99.90;;;;;;5061402;28;20543;-79
2022/01/31 06:48:09;;;;;;;0.10;0.10;;;4.00;99.90;;;;;;5061720;28;20279;-79
2022/01/31 06:50:34;;;;;;;0.17;0.17;;;4.10;99.90;;;;;;5056078;28;20292;-79
2022/01/31 06:53:01;;;;;;;2.07;0.60;;;4.10;99.90;;;;;;5058875;28;21157;-79
2022/01/31 06:55:29;;;;;;;0.20;0.20;;;4.20;99.90;;;;;;5057715;28;20554;-79
2022/01/31 06:57:54;;;;;;;0.10;0.10;;;4.20;99.90;;;;;;5057502;28;20514;-79
2022/01/31 07:00:21;;;;;;;0.20;0.20;;;4.10;99.90;;;;;;5055839;28;20697;-80
2022/01/31 07:02:48;;;;;;;0.10;0.10;;;4.10;99.90;;;;;;5059650;28;22129;-79
2022/01/31 07:05:14;;;;;;;0.40;0.10;;;4.00;99.90;;;;;;5057926;28;20191;-79
2022/01/31 07:07:41;;;;;;;0.30;0.30;;;4.00;99.90;;;;;;5058624;28;20200;-79
2022/01/31 07:10:07;;;;;;;3.27;0.53;;;4.00;99.90;;;;;;5058515;28;20211;-79
2022/01/31 07:12:36;;;;;;;1.07;0.67;;;3.90;99.90;;;;;;5055986;28;20204;-79
2022/01/31 07:15:04;;;;;;;0.10;0.10;;;3.90;99.90;;;;;;5056838;28;20321;-78
2022/01/31 07:17:30;;;;;;;0.10;0.10;;;3.90;99.90;;;;;;5059465;28;20395;-79
2022/01/31 07:19:56;;;;;;;0.10;0.10;;;4.00;99.90;;;;;;5058888;28;20190;-78
2022/01/31 07:22:28;;;;;;;0.20;0.20;;;4.00;99.90;;;;;;5057017;28;20209;-78
2022/01/31 07:25:05;;;;;;;0.10;0.10;;;4.10;99.90;;;;;;5054829;28;20186;-78
2022/01/31 07:27:31;;;;;;;0.10;0.10;;;4.10;99.90;;;;;;5057100;28;20559;-78
2022/01/31 07:29:57;;;;;;;0.10;0.10;;;4.10;99.90;;;;;;5056999;28;20661;-78
2022/01/31 07:32:23;;;;;;;0.43;0.20;;;4.10;99.90;;;;;;5044670;28;20222;-78
2022/01/31 07:34:55;;;;;;;0.10;0.10;;;4.10;99.90;;;;;;5056720;28;20215;-78
2022/01/31 07:37:21;;;;;;;0.17;0.10;;;4.20;99.90;;;;;;5059496;28;20189;-78
2022/01/31 07:39:47;;;;;;;0.10;0.10;;;4.30;99.90;;;;;;5056966;28;20190;-79
2022/01/31 07:42:12;;;;;;;0.10;0.10;;;4.30;99.90;;;;;;5057828;28;20212;-78
2022/01/31 07:44:38;;;;;;;0.10;0.10;;;4.50;99.90;;;;;;5058337;28;20188;-78
2022/01/31 07:47:05;;;;;;;0.10;0.10;;;4.60;99.90;;;;;;5057539;28;20264;-78
2022/01/31 07:49:30;;;;;;;0.13;0.10;;;4.80;99.90;;;;;;5055804;28;20214;-78
2022/01/31 07:51:58;;;;;;;0.10;0.10;;;4.80;99.90;;;;;;5057353;28;20243;-78
2022/01/31 07:54:23;;;;;;;0.10;0.10;;;4.90;99.90;;;;;;5060980;28;20180;-78
2022/01/31 07:56:49;;;;;;;0.00;0.00;;;5.00;99.90;;;;;;5058861;28;20651;-78
2022/01/31 07:59:14;;;;;;;0.10;0.10;;;5.00;99.90;;;;;;5059460;28;20224;-78
2022/01/31 08:01:40;;;;;;;0.10;0.10;;;4.90;99.90;;;;;;5057083;28;20213;-78
2022/01/31 08:04:06;;;;;;;0.10;0.10;;;5.00;99.90;;;;;;5055356;28;20424;-78
2022/01/31 08:06:32;;;;;;;0.03;0.03;;;4.90;99.90;;;;;;5056634;28;20193;-78
2022/01/31 08:08:58;;;;;;;0.17;0.17;;;4.90;99.90;;;;;;5053827;28;20205;-78
2022/01/31 08:11:30;;;;;;;0.13;0.13;;;4.80;99.90;;;;;;5058554;28;20236;-78
2022/01/31 08:13:59;;;;;;;0.23;0.23;;;4.90;99.90;;;;;;5055035;28;20203;-78
2022/01/31 08:16:25;;;;;;;0.10;0.10;;;4.90;99.90;;;;;;5057399;28;20182;-78
2022/01/31 08:18:51;;;;;;;0.00;0.00;;;5.00;99.90;;;;;;5056924;28;20203;-78
2022/01/31 08:21:16;;;;;;;0.10;0.10;;;5.00;99.90;;;;;;5056839;28;20601;-78
2022/01/31 08:23:42;;;;;;;0.80;0.80;;;5.00;99.90;;;;;;5059809;28;20194;-78
2022/01/31 08:26:12;;;;;;;0.07;0.07;;;5.10;99.90;;;;;;5060255;28;20556;-80
2022/01/31 08:28:42;;;;;;;0.10;0.10;;;5.30;99.90;;;;;;5057077;28;20618;-78
2022/01/31 08:31:15;;;;;;;0.50;0.50;;;5.40;99.90;;;;;;5054010;28;20307;-78
2022/01/31 08:33:47;;;;;;;0.20;0.20;;;5.60;99.90;;;;;;5059270;28;20207;-80
2022/01/31 08:36:13;;;;;;;0.10;0.10;;;5.70;99.90;;;;;;5063251;28;21206;-82
2022/01/31 08:38:41;;;;;;;0.10;0.10;;;5.80;99.90;;;;;;5061663;28;20178;-79
2022/01/31 08:41:07;;;;;;;0.07;0.07;;;5.90;99.90;;;;;;5063642;28;20201;-79
2022/01/31 08:43:34;;;;;;;0.13;0.13;;;5.90;99.90;;;;;;5065599;28;20212;-79
2022/01/31 08:46:00;;;;;;;0.27;0.27;;;5.90;99.90;;;;;;5062922;28;20226;-80
2022/01/31 08:48:26;;;;;;;3.97;0.20;;;5.90;99.90;;;;;;5066028;28;20206;-79
2022/01/31 08:50:53;;;;;;;0.53;0.50;;;5.90;99.90;;;;;;5065817;28;20201;-79
2022/01/31 08:53:19;;;;;;;0.40;0.30;;;6.00;99.90;;;;;;5065005;28;20243;-79
2022/01/31 08:55:54;;;;;;;0.23;0.23;;;5.90;99.90;;;;;;5064280;28;20181;-79
2022/01/31 08:58:20;;;;;;;0.20;0.20;;;5.90;99.90;;;;;;5064974;28;20263;-80
2022/01/31 09:00:58;;;;;;;0.10;0.10;;;6.00;99.90;;;;;;5064985;28;20209;-79
2022/01/31 09:03:42;;;;;;;0.03;0.03;;;6.00;99.90;;;;;;5063438;28;20181;-80
2022/01/31 09:06:09;;;;;;;1.27;0.73;;;6.00;99.90;;;;;;5064373;28;20173;-80
2022/01/31 09:08:35;;;;;;;0.10;0.10;;;5.90;99.90;;;;;;5064643;28;20617;-80
2022/01/31 09:11:01;;;;;;;0.10;0.10;;;5.90;99.90;;;;;;5064275;28;20201;-80
2022/01/31 09:13:27;;;;;;;0.10;0.10;;;5.90;99.90;;;;;;5064046;28;20278;-80
2022/01/31 09:15:52;;;;;;;0.10;0.10;;;5.90;99.90;;;;;;5064739;28;20196;-81
2022/01/31 09:18:18;;;;;;;0.20;0.20;;;6.00;99.90;;;;;;5061981;28;20215;-79
2022/01/31 09:20:44;;;;;;;0.17;0.17;;;6.10;99.90;;;;;;5054035;28;20254;-81
2022/01/31 09:23:09;;;;;;;0.10;0.10;;;6.10;99.90;;;;;;5060417;28;20278;-80
2022/01/31 09:25:37;;;;;;;0.10;0.10;;;6.30;99.90;;;;;;5063423;28;20575;-79
2022/01/31 09:28:03;;;;;;;0.00;0.00;;;6.30;99.90;;;;;;5064280;28;20193;-79
2022/01/31 09:30:29;;;;;;;0.10;0.10;;;6.40;99.90;;;;;;5063380;28;20653;-80
2022/01/31 09:32:58;;;;;;;0.13;0.13;;;6.60;99.90;;;;;;5063304;28;20213;-79
2022/01/31 09:35:25;;;;;;;0.10;0.10;;;6.60;99.90;;;;;;5061694;28;20200;-80
2022/01/31 09:37:51;;;;;;;0.10;0.10;;;6.60;99.90;;;;;;5063841;28;20192;-80
2022/01/31 09:40:20;;;;;;;0.10;0.10;;;6.50;99.90;;;;;;5062552;28;20981;-80
2022/01/31 09:43:23;;;;;;;0.00;0.00;;;6.40;99.90;;;;;;5063028;28;20230;-79
2022/01/31 09:46:04;;;;;;;0.20;0.20;;;6.30;99.90;;;;;;5061496;28;20227;-82
2022/01/31 09:51:12;;;;;;;0.00;0.00;;;6.40;99.90;;;;;;5063921;28;20223;-82
2022/01/31 09:53:41;;;;;;;0.00;0.00;;;6.50;99.90;;;;;;5064568;28;21207;-82
2022/01/31 09:56:10;;;;;;;0.20;0.20;;;6.50;99.90;;;;;;5061951;28;20186;-82
2022/01/31 09:58:37;;;;;;;1.30;0.10;;;6.50;99.90;;;;;;5062715;28;20207;-83
2022/01/31 10:01:09;;;;;;;0.07;0.07;;;6.50;99.90;;;;;;5061418;28;20678;-83
2022/01/31 10:03:51;;;;;;;0.10;0.10;;;6.60;99.90;;;;;;5061968;28;20576;-81
2022/01/31 10:06:27;;;;;;;0.00;0.00;;;6.60;99.90;;;;;;5057075;28;20240;-78
2022/01/31 10:09:10;;;;;;;0.00;0.00;;;6.60;99.90;;;;;;5063422;28;20193;-78
2022/01/31 10:11:51;;;;;;;0.03;0.03;;;6.80;99.90;;;;;;5062073;28;20216;-78
2022/01/31 10:17:30;;;;;;;0.07;0.07;;;7.00;99.90;;;;;;5063683;28;20679;-78
2022/01/31 10:20:02;;;;;;;0.10;0.10;;;7.00;99.90;;;;;;5064054;28;20638;-80
2022/01/31 10:22:30;;;;;;;0.10;0.10;;;6.80;99.90;;;;;;5058825;28;20272;-78
2022/01/31 10:24:58;;;;;;;0.10;0.10;;;6.80;99.90;;;;;;5061714;28;20247;-80
2022/01/31 10:27:27;;;;;;;0.17;0.17;;;6.70;99.90;;;;;;5056858;28;20195;-80
2022/01/31 10:29:54;;;;;;;0.00;0.00;;;6.60;99.90;;;;;;5061439;28;21037;-80
2022/01/31 10:32:34;;;;;;;0.13;0.13;;;6.60;99.90;;;;;;5061341;28;20292;-79
2022/01/31 10:35:02;;;;;;;0.10;0.10;;;6.70;99.90;;;;;;5061206;28;20572;-79
2022/01/31 10:37:30;;;;;;;0.17;0.17;;;6.80;99.90;;;;;;5057131;28;20923;-78
2022/01/31 10:53:51;;;;;;;0.13;0.13;;;6.80;99.90;;;;;;5058422;28;20258;-79
2022/01/31 10:56:17;;;;;;;0.10;0.10;;;6.80;99.90;;;;;;5055201;28;20723;-79
2022/01/31 10:58:56;;;;;;;0.00;0.00;;;6.70;99.90;;;;;;5058287;28;20196;-78
2022/01/31 11:01:21;;;;;;;0.00;0.00;;;6.70;99.90;;;;;;5058063;28;20204;-78
2022/01/31 11:03:47;;;;;;;0.10;0.10;;;6.50;99.90;;;;;;5056096;28;20223;-79
2022/01/31 11:06:13;;;;;;;0.00;0.00;;;6.60;99.90;;;;;;5059701;28;20207;-79
2022/01/31 11:08:40;;;;;;;0.10;0.10;;;6.50;99.90;;;;;;5057227;28;20193;-79
2022/01/31 11:11:06;;;;;;;0.17;0.10;;;6.50;99.90;;;;;;5053620;28;20205;-79
2022/01/31 11:13:33;;;;;;;0.00;0.00;;;6.40;99.90;;;;;;5058523;28;20229;-79
2022/01/31 11:16:00;;;;;;;0.00;0.00;;;6.40;99.90;;;;;;5060421;28;20983;-78
2022/01/31 11:18:29;;;;;;;0.00;0.00;;;6.30;99.90;;;;;;5055398;28;20185;-78
2022/01/31 11:20:59;;;;;;;0.10;0.10;;;6.20;99.90;;;;;;5056664;28;20205;-79
2022/01/31 11:23:28;;;;;;;0.10;0.10;;;6.20;99.90;;;;;;5059536;28;20192;-79
2022/01/31 11:25:56;;;;;;;0.10;0.10;;;6.10;99.90;;;;;;5057815;28;20191;-78
2022/01/31 11:28:24;;;;;;;0.10;0.10;;;6.00;99.90;;;;;;5058375;28;20196;-79
2022/01/31 11:30:51;;;;;;;0.03;0.03;;;6.00;99.90;;;;;;5058591;28;20208;-78
2022/01/31 11:33:17;;;;;;;0.10;0.10;;;5.90;99.90;;;;;;5057872;28;20224;-80
2022/01/31 11:35:43;;;;;;;0.00;0.00;;;5.80;99.90;;;;;;5059848;28;20212;-79
2022/01/31 11:38:10;;;;;;;0.10;0.10;;;5.80;99.90;;;;;;5057412;28;20657;-78
2022/01/31 11:40:36;;;;;;;0.10;0.10;;;5.70;99.90;;;;;;5058468;28;20696;-78
2022/01/31 11:43:02;;;;;;;0.10;0.10;;;5.70;99.90;;;;;;5059996;28;20185;-79
2022/01/31 11:45:39;;;;;;;0.10;0.10;;;5.70;99.90;;;;;;5072550;28;20184;-78
2022/01/31 11:48:09;;;;;;;0.10;0.10;;;5.70;99.90;;;;;;5072710;28;20192;-78
2022/01/31 11:50:56;;;;;;;0.10;0.10;;;5.70;99.90;;;;;;5070675;28;20208;-78
2022/01/31 11:53:36;;;;;;;0.10;0.10;;;5.80;99.90;;;;;;5058624;28;20295;-77
2022/01/31 11:56:14;;;;;;;0.00;0.00;;;5.80;99.90;;;;;;5061421;28;20282;-80
2022/01/31 11:58:45;;;;;;;0.00;0.00;;;5.80;99.90;;;;;;5060253;28;20222;-78
2022/01/31 12:01:13;;;;;;;0.10;0.10;;;5.80;99.90;;;;;;5062473;28;20284;-78
2022/01/31 12:03:59;;;;;;;0.03;0.03;;;5.90;99.90;;;;;;5060725;28;20227;-79
2022/01/31 12:06:27;;;;;;;0.10;0.10;;;6.00;99.90;;;;;;5069201;28;20250;-78
2022/01/31 12:08:54;;;;;;;0.10;0.10;;;6.00;99.90;;;;;;5057988;28;20195;-79
2022/01/31 12:11:27;;;;;;;0.10;0.10;;;6.10;99.90;;;;;;5062470;28;20217;-79
2022/01/31 12:13:58;;;;;;;0.10;0.10;;;6.00;99.90;;;;;;5064073;28;20204;-79
2022/01/31 12:16:38;;;;;;;0.10;0.10;;;6.00;99.90;;;;;;5062710;28;20213;-79
2022/01/31 12:19:30;;;;;;;0.10;0.10;;;5.90;99.90;;;;;;5060952;28;20259;-78
2022/01/31 12:22:00;;;;;;;0.10;0.10;;;5.90;99.90;;;;;;5061775;28;20208;-78
2022/01/31 12:24:37;;;;;;;0.10;0.10;;;5.80;99.90;;;;;;5061589;28;20208;-78
2022/01/31 12:27:08;;;;;;;0.30;0.20;;;5.90;99.90;;;;;;5062164;28;20191;-78
2022/01/31 12:29:43;;;;;;;0.03;0.03;;;5.80;99.90;;;;;;5062387;28;20298;-78
2022/01/31 12:32:15;;;;;;;0.07;0.07;;;6.00;99.90;;;;;;5058694;28;20297;-78
2022/01/31 12:35:03;;;;;;;0.10;0.10;;;6.00;99.90;;;;;;5059825;28;20260;-78
2022/01/31 12:37:36;;;;;;;0.10;0.10;;;6.00;99.90;;;;;;5059211;28;20684;-78
2022/01/31 12:40:08;;;;;;;0.10;0.10;;;6.00;99.90;;;;;;5056725;28;20263;-78
2022/01/31 12:42:46;;;;;;;0.07;0.07;;;6.00;99.90;;;;;;5059415;28;20175;-81
2022/01/31 12:45:19;;;;;;;0.17;0.17;;;6.00;99.90;;;;;;5058021;28;20184;-79
2022/01/31 12:48:20;;;;;;;0.10;0.10;;;5.90;99.90;;;;;;5061159;28;20184;-79
2022/01/31 12:50:48;;;;;;;0.10;0.10;;;5.70;99.90;;;;;;5059404;28;20574;-79
2022/01/31 12:53:23;;;;;;;0.20;0.20;;;5.60;99.90;;;;;;5059640;28;20217;-79
2022/01/31 12:56:06;;;;;;;0.10;0.10;;;5.60;99.90;;;;;;5060117;28;20231;-79
2022/01/31 12:58:33;;;;;;;0.20;0.10;;;5.70;99.90;;;;;;5059406;28;20619;-79
2022/01/31 13:01:11;;;;;;;0.00;0.00;;;5.80;99.90;;;;;;5060056;28;20357;-79
2022/01/31 13:03:39;;;;;;;0.10;0.10;;;5.70;99.90;;;;;;5062651;28;20602;-79
2022/01/31 13:06:33;;;;;;;0.10;0.10;;;5.70;99.90;;;;;;5061857;28;20185;-78
2022/01/31 13:09:01;;;;;;;0.00;0.00;;;5.70;99.90;;;;;;5062432;28;20190;-79
2022/01/31 13:11:27;;;;;;;0.03;0.03;;;5.70;99.90;;;;;;5060291;28;20224;-78
2022/01/31 13:14:06;;;;;;;0.00;0.00;;;5.70;99.90;;;;;;5062944;28;20205;-79
2022/01/31 13:17:04;;;;;;;0.10;0.10;;;5.70;99.90;;;;;;5059754;28;20178;-79
2022/01/31 13:19:33;;;;;;;0.00;0.00;;;5.60;99.90;;;;;;5058958;28;21032;-80
2022/01/31 13:22:02;;;;;;;0.03;0.03;;;5.50;99.90;;;;;;5061623;28;20227;-80
2022/01/31 13:24:37;;;;;;;0.10;0.10;;;5.40;99.90;;;;;;5062071;28;20245;-79
2022/01/31 13:27:03;;;;;;;0.07;0.07;;;5.40;99.90;;;;;;5061562;28;20214;-81